Time;durP1;ratioP1;P1;durP2;ratioP2;P2;SDS_P1;SDS_P2;PMS_P1;PMS_P2;Temp;Humidity;BMP_temperature;BMP_pressure;BME280_temperature;BME280_humidity;BME280_pressure;Samples;Min_cycle;Max_cycle;Signal;HPM_P1;HPM_P2
2022/05/29 00:01:57;;;;;;;8.60;2.03;;;;;;;11.00;100.00;101871.34;5095787;28;20024;-70
2022/05/29 00:04:22;;;;;;;10.77;1.60;;;;;;;10.96;100.00;101859.84;5109934;28;20019;-70
2022/05/29 00:06:52;;;;;;;6.35;1.67;;;;;;;10.94;100.00;101858.88;5114475;27;20030;-70
2022/05/29 00:09:25;;;;;;;12.65;1.92;;;;;;;10.94;100.00;101854.50;5105409;28;20028;-70
2022/05/29 00:11:51;;;;;;;10.32;2.22;;;;;;;10.91;100.00;101858.78;5087593;28;20024;-70
2022/05/29 00:14:16;;;;;;;10.15;1.73;;;;;;;10.91;100.00;101849.13;5094648;28;20414;-70
2022/05/29 00:16:41;;;;;;;17.17;2.38;;;;;;;10.93;100.00;101851.81;5096242;28;20030;-69
2022/05/29 00:19:06;;;;;;;11.02;2.13;;;;;;;10.99;100.00;101851.09;5083936;28;20089;-69
2022/05/29 00:21:36;;;;;;;10.82;2.35;;;;;;;11.06;100.00;101848.72;5111360;27;20119;-69
2022/05/29 00:24:01;;;;;;;9.95;1.40;;;;;;;11.10;100.00;101850.59;5104504;28;20024;-70
2022/05/29 00:26:26;;;;;;;9.18;1.35;;;;;;;11.14;100.00;101852.47;5110715;28;20011;-70
2022/05/29 00:28:52;;;;;;;8.52;1.33;;;;;;;11.10;100.00;101850.59;5099887;28;20410;-70
2022/05/29 00:31:17;;;;;;;8.55;1.70;;;;;;;11.09;100.00;101842.66;5111485;28;20024;-70
2022/05/29 00:33:42;;;;;;;9.98;1.67;;;;;;;11.19;100.00;101843.81;5111856;28;20028;-70
2022/05/29 00:36:14;;;;;;;8.65;1.55;;;;;;;11.21;100.00;101834.25;5105098;28;20050;-69
2022/05/29 00:38:41;;;;;;;3.70;1.30;;;;;;;11.16;100.00;101834.09;5090525;28;20035;-70
2022/05/29 00:41:11;;;;;;;6.80;1.40;;;;;;;11.13;100.00;101834.88;5094042;28;20072;-70
2022/05/29 00:43:37;;;;;;;7.63;1.95;;;;;;;11.11;100.00;101839.22;5107320;28;20016;-70
2022/05/29 00:46:04;;;;;;;7.45;1.35;;;;;;;11.05;100.00;101830.25;5099472;28;20016;-71
2022/05/29 00:48:30;;;;;;;4.57;1.70;;;;;;;11.02;100.00;101825.78;5099836;28;20040;-70
2022/05/29 00:50:59;;;;;;;7.40;1.70;;;;;;;10.98;100.00;101828.28;5089729;28;20491;-70
2022/05/29 00:53:25;;;;;;;6.20;1.33;;;;;;;10.91;100.00;101833.34;5094667;28;20036;-70
2022/05/29 00:55:57;;;;;;;6.28;1.45;;;;;;;10.89;100.00;101821.88;5095268;28;20028;-70
2022/05/29 00:58:24;;;;;;;10.40;1.52;;;;;;;10.85;100.00;101824.34;5094430;28;20161;-69
2022/05/29 01:00:51;;;;;;;6.13;1.27;;;;;;;10.88;100.00;101821.81;5100475;28;20425;-70
2022/05/29 01:03:16;;;;;;;8.02;1.70;;;;;;;10.78;100.00;101813.66;5093478;28;20106;-69
2022/05/29 01:05:42;;;;;;;8.27;1.60;;;;;;;10.74;100.00;101813.47;5101299;28;20577;-69
2022/05/29 01:08:40;;;;;;;6.93;1.63;;;;;;;10.66;100.00;101809.72;5100884;28;20568;-70
2022/05/29 01:11:19;;;;;;;9.00;1.60;;;;;;;10.63;100.00;101810.50;5082965;28;20395;-70
2022/05/29 01:14:07;;;;;;;7.53;1.42;;;;;;;10.58;100.00;101796.31;5097694;28;20062;-70
2022/05/29 01:16:59;;;;;;;4.38;1.17;;;;;;;10.50;100.00;101800.44;5099792;28;20482;-70
2022/05/29 01:19:57;;;;;;;10.43;1.98;;;;;;;10.49;100.00;101796.91;5099361;28;20027;-70
2022/05/29 01:22:46;;;;;;;9.02;1.92;;;;;;;10.49;100.00;101790.78;5095202;28;20476;-70
2022/05/29 01:25:49;;;;;;;9.13;2.17;;;;;;;10.57;100.00;101797.19;5099210;28;20352;-70
2022/05/29 01:28:28;;;;;;;7.65;2.10;;;;;;;10.60;100.00;101792.00;5083662;28;20034;-69
2022/05/29 01:31:05;;;;;;;7.13;1.85;;;;;;;10.65;100.00;101792.13;5090899;28;20468;-69
2022/05/29 01:33:43;;;;;;;8.23;1.70;;;;;;;10.71;100.00;101787.06;5108931;28;20081;-69
2022/05/29 01:36:14;;;;;;;11.00;2.53;;;;;;;10.73;100.00;101781.00;5096022;28;20428;-70
2022/05/29 01:39:05;;;;;;;8.38;1.83;;;;;;;10.68;100.00;101779.09;5100997;28;20048;-70
2022/05/29 01:41:36;;;;;;;9.27;1.95;;;;;;;10.70;100.00;101780.94;5086179;28;20036;-70
2022/05/29 01:44:15;;;;;;;9.50;2.35;;;;;;;10.72;100.00;101773.94;5100930;28;20019;-70
2022/05/29 01:46:45;;;;;;;13.75;1.92;;;;;;;10.79;100.00;101775.03;5104755;28;20032;-70
2022/05/29 01:49:28;;;;;;;16.02;1.80;;;;;;;10.80;100.00;101775.06;5095584;28;20096;-71
2022/05/29 01:51:59;;;;;;;14.82;3.13;;;;;;;10.87;100.00;101770.00;5087479;28;20448;-69
2022/05/29 01:54:34;;;;;;;9.52;2.10;;;;;;;10.94;100.00;101772.84;5096448;28;20031;-71
2022/05/29 01:57:12;;;;;;;11.90;2.05;;;;;;;11.02;100.00;101770.47;5100025;28;20050;-70
2022/05/29 01:59:51;;;;;;;13.45;1.80;;;;;;;11.07;100.00;101766.22;5097990;28;20031;-69
2022/05/29 02:02:23;;;;;;;7.03;1.90;;;;;;;11.13;100.00;101766.38;5099177;28;20040;-70
2022/05/29 02:04:55;;;;;;;6.03;1.73;;;;;;;11.19;100.00;101765.69;5096450;28;20072;-69
2022/05/29 02:10:12;;;;;;;17.55;2.63;;;;;;;11.32;100.00;101760.78;5096520;28;20086;-70
2022/05/29 02:12:48;;;;;;;8.80;1.70;;;;;;;11.35;100.00;101759.09;5093658;28;20081;-69
2022/05/29 02:15:18;;;;;;;7.75;1.58;;;;;;;11.33;100.00;101757.28;5096062;28;20027;-69
2022/05/29 02:17:53;;;;;;;5.57;1.30;;;;;;;11.38;100.00;101751.31;5101005;28;20485;-70
2022/05/29 02:20:34;;;;;;;3.65;1.25;;;;;;;11.40;100.00;101760.13;5098434;28;20131;-71
2022/05/29 02:23:10;;;;;;;6.50;1.60;;;;;;;11.42;100.00;101753.19;5107493;28;20356;-70
2022/05/29 02:25:38;;;;;;;12.23;1.85;;;;;;;11.38;100.00;101756.56;5098555;28;20435;-70
2022/05/29 02:28:16;;;;;;;7.43;1.63;;;;;;;11.44;100.00;101748.81;5103783;28;20024;-69
2022/05/29 02:30:45;;;;;;;9.25;1.60;;;;;;;11.47;100.00;101751.53;5100007;28;20027;-71
2022/05/29 02:33:18;;;;;;;10.65;1.48;;;;;;;11.47;100.00;101740.09;5092607;28;20055;-70
2022/05/29 02:36:29;;;;;;;14.10;2.10;;;;;;;11.48;100.00;101741.91;5105092;28;20031;-70
2022/05/29 02:39:22;;;;;;;8.52;1.77;;;;;;;11.48;100.00;101736.63;5092576;28;20379;-71
2022/05/29 02:42:03;;;;;;;14.30;2.05;;;;;;;11.45;100.00;101734.81;5077357;28;20119;-70
2022/05/29 02:44:59;;;;;;;9.77;1.70;;;;;;;11.48;100.00;101742.78;5088196;28;20023;-70
2022/05/29 02:48:00;;;;;;;11.93;1.73;;;;;;;11.50;100.00;101739.31;5107428;28;20055;-71
2022/05/29 02:50:34;;;;;;;9.07;1.80;;;;;;;11.45;100.00;101740.06;5101002;28;20020;-69
2022/05/29 02:53:06;;;;;;;11.40;2.00;;;;;;;11.48;100.00;101732.25;5094975;28;20084;-69
2022/05/29 02:55:31;;;;;;;13.68;1.77;;;;;;;11.43;100.00;101732.97;5096323;28;20063;-70
2022/05/29 02:58:01;;;;;;;6.72;1.55;;;;;;;11.40;100.00;101739.03;5112306;28;20110;-70
2022/05/29 03:00:32;;;;;;;9.85;1.42;;;;;;;11.37;100.00;101738.97;5099409;28;20024;-71
2022/05/29 03:03:20;;;;;;;9.43;1.63;;;;;;;11.33;100.00;101731.84;5104551;28;20465;-69
2022/05/29 03:06:22;;;;;;;10.63;1.42;;;;;;;11.34;100.00;101736.25;5110942;28;20035;-70
2022/05/29 03:09:03;;;;;;;7.40;1.50;;;;;;;11.30;100.00;101730.00;5103056;27;20031;-69
2022/05/29 03:11:40;;;;;;;6.57;1.13;;;;;;;11.20;100.00;101740.25;5096938;28;20114;-70
2022/05/29 03:14:19;;;;;;;7.07;1.00;;;;;;;11.05;100.00;101752.09;5087090;28;20024;-69
2022/05/29 03:17:11;;;;;;;3.20;1.00;;;;;;;11.03;100.00;101752.91;5084534;28;20032;-69
2022/05/29 03:19:57;;;;;;;6.15;1.10;;;;;;;10.99;100.00;101749.31;5094040;28;20036;-69
2022/05/29 03:22:44;;;;;;;6.85;1.20;;;;;;;10.86;100.00;101750.66;5090093;28;20165;-70
2022/05/29 03:25:18;;;;;;;3.78;1.30;;;;;;;10.79;100.00;101752.22;5109539;28;20100;-69
2022/05/29 03:27:47;;;;;;;7.18;1.33;;;;;;;10.78;100.00;101758.34;5096302;28;20051;-69
2022/05/29 03:30:31;;;;;;;6.35;1.50;;;;;;;10.73;100.00;101756.41;5101682;27;20072;-71
2022/05/29 03:32:57;;;;;;;;;;;;;;;10.68;100.00;101750.13;5092147;28;20032;-71
2022/05/29 03:35:23;;;;;;;13.93;3.50;;;;;;;10.68;100.00;101739.59;5099175;28;19966;-70
2022/05/29 03:37:49;;;;;;;7.68;1.70;;;;;;;10.59;100.00;101745.47;5095776;28;20067;-71
2022/05/29 03:40:14;;;;;;;9.88;2.10;;;;;;;10.56;100.00;101740.13;5088687;28;20099;-70
2022/05/29 03:42:40;;;;;;;9.32;2.00;;;;;;;10.47;100.00;101730.19;5101301;28;20369;-70
2022/05/29 03:45:08;;;;;;;9.57;1.85;;;;;;;10.32;100.00;101725.28;5086054;28;20027;-71
2022/05/29 03:47:33;;;;;;;8.18;2.13;;;;;;;10.27;100.00;101730.41;5095203;28;20411;-71
2022/05/29 03:49:59;;;;;;;15.70;1.90;;;;;;;10.16;100.00;101720.38;5107348;28;20103;-70
2022/05/29 03:52:25;;;;;;;7.07;1.83;;;;;;;10.13;100.00;101715.91;5101073;28;20135;-71
2022/05/29 03:54:53;;;;;;;7.72;1.75;;;;;;;10.13;100.00;101708.94;5087773;28;20111;-70
2022/05/29 03:57:19;;;;;;;6.45;1.65;;;;;;;10.08;100.00;101705.25;5096101;28;20032;-70
2022/05/29 03:59:44;;;;;;;15.18;1.90;;;;;;;10.09;100.00;101712.31;5099688;28;20099;-71
2022/05/29 04:02:09;;;;;;;7.28;1.90;;;;;;;10.09;100.00;101711.41;5105233;28;20072;-70
2022/05/29 04:04:35;;;;;;;10.30;1.73;;;;;;;10.16;100.00;101717.75;5107477;28;20058;-70
2022/05/29 04:07:00;;;;;;;8.18;1.95;;;;;;;10.17;100.00;101709.91;5106397;28;20028;-71
2022/05/29 04:12:13;;;;;;;;;;;;;;;10.28;100.00;101712.88;5102599;28;20622;-71
2022/05/29 04:14:41;;;;;;;12.52;2.35;;;;;;;10.36;100.00;101708.78;5099059;28;19954;-71
2022/05/29 04:17:08;;;;;;;8.55;1.80;;;;;;;10.41;100.00;101709.84;5099085;28;20030;-70
2022/05/29 04:19:33;;;;;;;7.60;1.60;;;;;;;10.46;100.00;101705.63;5103391;28;20115;-71
2022/05/29 04:21:59;;;;;;;7.55;1.30;;;;;;;10.49;100.00;101704.81;5100081;28;20027;-71
2022/05/29 04:24:25;;;;;;;7.10;1.52;;;;;;;10.51;100.00;101703.09;5111955;28;20049;-72
2022/05/29 04:26:51;;;;;;;6.72;1.70;;;;;;;10.60;100.00;101702.50;5112164;28;20043;-71
2022/05/29 04:29:18;;;;;;;6.22;1.50;;;;;;;10.68;100.00;101703.63;5104087;28;20054;-71
2022/05/29 04:32:59;;;;;;;7.32;1.77;;;;;;;10.69;100.00;101702.78;5104334;28;20049;-71
2022/05/29 04:34:29;;;;;;;8.73;1.55;;;;;;;10.72;100.00;101720.44;5097240;28;20040;-71
2022/05/29 04:36:55;;;;;;;7.28;2.25;;;;;;;10.60;100.00;101715.69;5086137;28;20034;-72
2022/05/29 04:39:20;;;;;;;8.40;1.83;;;;;;;10.57;100.00;101712.97;5091211;28;20095;-71
2022/05/29 04:41:46;;;;;;;9.20;1.45;;;;;;;10.51;100.00;101712.75;5082089;28;20525;-71
2022/05/29 04:44:11;;;;;;;7.47;1.75;;;;;;;10.43;100.00;101705.53;5089612;28;20040;-71
2022/05/29 04:46:36;;;;;;;4.45;1.60;;;;;;;10.28;100.00;101705.91;5086872;28;20711;-72
2022/05/29 04:49:02;;;;;;;5.40;1.60;;;;;;;10.34;100.00;101712.22;5087280;28;20101;-70
2022/05/29 04:51:28;;;;;;;9.52;1.80;;;;;;;10.34;100.00;101699.94;5092267;28;20020;-71
2022/05/29 04:53:53;;;;;;;7.10;1.60;;;;;;;10.40;100.00;101697.50;5085365;28;20032;-71
2022/05/29 04:56:18;;;;;;;10.38;1.55;;;;;;;10.43;100.00;101697.63;5092947;28;20028;-71
2022/05/29 04:58:44;;;;;;;4.47;1.75;;;;;;;10.48;100.00;101699.50;5094875;28;20032;-70
2022/05/29 05:01:10;;;;;;;5.75;1.40;;;;;;;10.48;100.00;101695.13;5098701;28;20054;-71
2022/05/29 05:03:35;;;;;;;4.55;1.27;;;;;;;10.53;100.00;101692.66;5099266;28;20054;-71
2022/05/29 05:06:00;;;;;;;8.63;2.15;;;;;;;10.51;100.00;101689.06;5099730;28;20073;-72
2022/05/29 05:08:26;;;;;;;7.57;1.83;;;;;;;10.52;100.00;101698.75;5099528;28;20023;-72
2022/05/29 05:10:52;;;;;;;7.15;1.80;;;;;;;10.51;100.00;101687.31;5097222;28;20028;-72
2022/05/29 05:13:17;;;;;;;7.88;1.50;;;;;;;10.53;100.00;101685.66;5102405;28;20054;-71
2022/05/29 05:15:43;;;;;;;6.10;1.75;;;;;;;10.44;100.00;101680.09;5095688;28;20021;-72
2022/05/29 05:18:08;;;;;;;9.70;1.98;;;;;;;10.49;100.00;101680.25;5110872;28;20163;-72
2022/05/29 05:20:34;;;;;;;5.97;2.10;;;;;;;10.53;100.00;101687.41;5105578;28;20108;-72
2022/05/29 05:23:00;;;;;;;7.55;2.10;;;;;;;10.56;100.00;101691.00;5108885;28;20030;-71
2022/05/29 05:25:26;;;;;;;8.45;2.00;;;;;;;10.52;100.00;101688.22;5101313;28;20020;-72
2022/05/29 05:27:51;;;;;;;7.88;2.10;;;;;;;10.53;100.00;101690.03;5099461;28;20074;-73
2022/05/29 05:30:17;;;;;;;6.00;2.45;;;;;;;10.53;100.00;101692.66;5105773;28;20031;-73
2022/05/29 05:32:42;;;;;;;6.78;2.08;;;;;;;10.44;100.00;101686.28;5087310;28;20492;-73
2022/05/29 05:35:08;;;;;;;3.35;1.75;;;;;;;10.52;100.00;101685.59;5104351;28;20119;-71
2022/05/29 05:37:35;;;;;;;8.50;2.50;;;;;;;10.41;100.00;101678.25;5099897;28;20373;-72
2022/05/29 05:40:06;;;;;;;7.90;1.63;;;;;;;10.41;100.00;101678.25;5087612;28;20494;-72
2022/05/29 05:42:31;;;;;;;5.43;1.98;;;;;;;10.42;100.00;101693.22;5093130;28;20032;-72
2022/05/29 05:44:57;;;;;;;9.15;2.00;;;;;;;10.42;100.00;101708.13;5093093;28;20016;-71
2022/05/29 05:47:22;;;;;;;6.30;1.70;;;;;;;10.37;100.00;101702.69;5101207;28;20379;-71
2022/05/29 05:49:49;;;;;;;7.30;1.75;;;;;;;10.26;100.00;101697.06;5106835;28;20520;-72
2022/05/29 05:52:15;;;;;;;10.85;1.90;;;;;;;10.30;100.00;101696.31;5088565;28;20035;-71
2022/05/29 05:54:40;;;;;;;8.90;2.13;;;;;;;10.32;100.00;101696.34;5092747;28;20031;-72
2022/05/29 05:57:06;;;;;;;7.38;1.90;;;;;;;10.38;100.00;101688.69;5101055;28;20077;-72
2022/05/29 05:59:32;;;;;;;7.45;2.20;;;;;;;10.43;100.00;101684.47;5102693;28;20359;-72
2022/05/29 06:01:58;;;;;;;8.60;2.13;;;;;;;10.40;100.00;101681.72;5096701;28;20069;-72
2022/05/29 06:04:24;;;;;;;3.97;2.20;;;;;;;10.47;100.00;101677.56;5092741;28;20024;-72
2022/05/29 06:06:49;;;;;;;10.20;1.90;;;;;;;10.52;100.00;101675.06;5092085;28;20016;-72
2022/05/29 06:09:17;;;;;;;5.50;1.80;;;;;;;10.52;100.00;101680.34;5090182;28;20130;-73
2022/05/29 06:11:42;;;;;;;6.15;2.20;;;;;;;10.70;100.00;101680.91;5099445;28;20016;-71
2022/05/29 06:14:08;;;;;;;7.50;2.03;;;;;;;10.83;100.00;101670.72;5106026;28;20055;-72
2022/05/29 06:16:34;;;;;;;3.65;1.52;;;;;;;10.92;100.00;101665.69;5096630;28;20032;-73
2022/05/29 06:18:59;;;;;;;7.40;2.25;;;;;;;11.00;100.00;101674.72;5106896;28;20495;-72
2022/05/29 06:21:24;;;;;;;6.05;2.00;;;;;;;11.03;100.00;101659.00;5086684;28;20065;-71
2022/05/29 06:23:50;;;;;;;7.78;1.98;;;;;;;11.06;100.00;101669.63;5093503;28;20546;-72
2022/05/29 06:26:15;;;;;;;11.30;1.90;;;;;;;11.21;100.00;101657.72;5110029;28;20037;-73
2022/05/29 06:28:41;;;;;;;11.38;2.45;;;;;;;11.16;100.00;101661.97;5109094;28;20467;-72
2022/05/29 06:31:10;;;;;;;7.18;2.30;;;;;;;11.26;100.00;101662.25;5109258;28;20032;-72
2022/05/29 06:33:37;;;;;;;12.85;2.83;;;;;;;11.35;100.00;101660.72;5104054;28;20115;-72
2022/05/29 06:36:14;;;;;;;7.28;2.15;;;;;;;11.23;100.00;101671.81;5112540;27;20032;-73
2022/05/29 06:38:41;;;;;;;9.45;2.47;;;;;;;11.20;100.00;101667.34;5089694;28;20028;-72
2022/05/29 06:41:08;;;;;;;11.38;2.35;;;;;;;11.02;100.00;101672.13;5098101;28;20106;-73
2022/05/29 06:43:35;;;;;;;10.52;2.20;;;;;;;10.80;100.00;101676.78;5107607;28;20483;-73
2022/05/29 06:46:02;;;;;;;7.57;1.90;;;;;;;10.77;100.00;101677.59;5095980;28;20031;-73
2022/05/29 06:48:27;;;;;;;8.23;1.92;;;;;;;10.87;100.00;101668.22;5099170;28;20052;-72
2022/05/29 06:50:53;;;;;;;9.98;1.80;;;;;;;10.94;100.00;101685.06;5099877;28;20067;-73
2022/05/29 06:53:20;;;;;;;10.32;2.17;;;;;;;10.96;100.00;101688.66;5093599;28;20028;-73
2022/05/29 06:55:55;;;;;;;15.07;2.70;;;;;;;11.04;100.00;101681.88;5100407;28;20360;-73
2022/05/29 06:58:21;;;;;;;11.15;2.70;;;;;;;11.10;100.00;101673.25;5097536;28;20027;-73
2022/05/29 07:08:58;;;;;;;5.97;1.20;;;;;;;10.37;100.00;101686.03;5094335;28;19943;-68
2022/05/29 07:11:27;;;;;;;8.15;2.20;;;;;;;10.26;100.00;101689.16;5095455;28;20468;-70
2022/05/29 07:13:54;;;;;;;25.35;2.42;;;;;;;10.18;100.00;101688.03;5096339;28;20097;-71
2022/05/29 07:16:20;;;;;;;13.00;2.88;;;;;;;10.16;100.00;101695.00;5094947;28;20032;-71
2022/05/29 07:18:48;;;;;;;8.90;2.25;;;;;;;9.89;100.00;101684.44;5097259;28;20052;-70
2022/05/29 07:21:13;;;;;;;10.32;2.03;;;;;;;9.92;100.00;101676.69;5092202;28;20032;-70
2022/05/29 07:23:39;;;;;;;10.07;2.38;;;;;;;9.91;100.00;101685.41;5102634;28;20050;-71
2022/05/29 07:26:04;;;;;;;12.90;2.67;;;;;;;9.90;100.00;101689.78;5099230;28;20068;-71
2022/05/29 07:28:29;;;;;;;17.77;3.88;;;;;;;9.90;100.00;101675.72;5105707;28;20059;-71
2022/05/29 07:30:55;;;;;;;18.33;3.95;;;;;;;10.03;100.00;101679.66;5095324;28;20036;-74
2022/05/29 07:33:21;;;;;;;14.15;4.03;;;;;;;10.08;100.00;101683.34;5095355;28;20099;-70
2022/05/29 07:35:46;;;;;;;16.90;4.50;;;;;;;10.25;100.00;101681.22;5094704;28;20027;-70
2022/05/29 07:38:12;;;;;;;15.52;3.70;;;;;;;10.21;100.00;101671.47;5093139;28;20024;-71
2022/05/29 07:40:38;;;;;;;18.58;4.15;;;;;;;10.30;100.00;101669.13;5096102;28;20032;-71
2022/05/29 07:43:18;;;;;;;17.95;4.18;;;;;;;10.39;100.00;101664.19;5095085;28;20115;-71
2022/05/29 07:45:56;;;;;;;15.88;3.83;;;;;;;10.37;100.00;101665.84;5084324;28;20016;-72
2022/05/29 07:48:28;;;;;;;22.95;5.88;;;;;;;10.44;100.00;101659.97;5091470;28;20044;-71
2022/05/29 07:50:54;;;;;;;19.42;4.35;;;;;;;10.56;100.00;101661.16;5088846;28;20020;-71
2022/05/29 07:53:20;;;;;;;13.40;4.38;;;;;;;10.68;100.00;101658.00;5100319;28;20043;-71
2022/05/29 07:55:46;;;;;;;16.52;4.68;;;;;;;10.75;100.00;101673.13;5088495;28;20016;-71
2022/05/29 07:58:13;;;;;;;29.35;5.70;;;;;;;10.69;100.00;101673.84;5093448;28;20030;-71
2022/05/29 08:00:40;;;;;;;18.40;4.57;;;;;;;10.57;100.00;101673.47;5092793;28;20036;-73
2022/05/29 08:03:05;;;;;;;20.77;4.70;;;;;;;10.53;100.00;101668.97;5092289;28;20020;-71
2022/05/29 08:05:34;;;;;;;16.20;4.00;;;;;;;10.45;100.00;101666.97;5086223;28;20024;-70
2022/05/29 08:07:59;;;;;;;21.65;3.28;;;;;;;10.37;100.00;101665.84;5085081;28;20039;-71
2022/05/29 08:10:25;;;;;;;15.73;3.15;;;;;;;10.39;100.00;101674.72;5086676;28;20020;-70
2022/05/29 08:12:52;;;;;;;22.63;3.67;;;;;;;10.49;100.00;101664.47;5083525;28;20035;-70
2022/05/29 08:15:17;;;;;;;12.30;3.15;;;;;;;10.51;100.00;101674.16;5098978;28;20028;-69
2022/05/29 08:17:44;;;;;;;19.10;3.60;;;;;;;10.61;100.00;101659.56;5104187;28;20038;-69
2022/05/29 08:20:12;;;;;;;11.55;3.67;;;;;;;10.72;100.00;101663.38;5092540;28;20039;-71
2022/05/29 08:22:37;;;;;;;20.50;4.88;;;;;;;10.82;100.00;101659.28;5096605;28;20032;-69
2022/05/29 08:30:37;;;;;;;;;;;;;;;11.42;100.00;101662.66;5087234;28;20067;-69
2022/05/29 08:33:09;;;;;;;11.35;2.97;;;;;;;11.55;100.00;101658.63;5094300;28;20682;-70
2022/05/29 08:35:36;;;;;;;13.02;2.70;;;;;;;11.59;100.00;101655.19;5092690;28;20357;-70
2022/05/29 08:38:02;;;;;;;17.13;2.30;;;;;;;11.63;100.00;101657.06;5093354;28;20522;-70
2022/05/29 08:40:30;;;;;;;6.95;1.65;;;;;;;11.64;100.00;101654.47;5101816;28;20020;-69
2022/05/29 08:42:55;;;;;;;6.05;1.60;;;;;;;11.59;100.00;101652.56;5089557;28;20031;-71
2022/05/29 08:45:21;;;;;;;7.10;1.70;;;;;;;11.81;100.00;101662.81;5095649;28;20103;-70
2022/05/29 08:47:47;;;;;;;9.55;1.63;;;;;;;11.96;100.00;101659.69;5093414;28;20040;-69
2022/05/29 08:50:23;;;;;;;7.32;1.10;;;;;;;11.97;100.00;101663.19;5100967;28;22011;-70
2022/05/29 08:52:59;;;;;;;8.25;1.10;;;;;;;12.03;100.00;101660.72;5094066;28;20028;-70
2022/05/29 08:55:39;;;;;;;4.00;0.63;;;;;;;12.21;100.00;101649.69;5091635;28;20058;-69
2022/05/29 08:58:25;;;;;;;2.45;0.57;;;;;;;12.47;100.00;101655.53;5092948;28;20031;-70
2022/05/29 09:00:59;;;;;;;1.00;0.47;;;;;;;12.68;100.00;101654.22;5092263;28;20390;-70
2022/05/29 09:03:53;;;;;;;3.03;0.60;;;;;;;12.72;100.00;101656.06;5085207;28;20031;-70
2022/05/29 09:06:22;;;;;;;3.47;0.80;;;;;;;12.85;100.00;101656.34;5093601;28;20023;-71
2022/05/29 09:09:13;;;;;;;1.67;0.70;;;;;;;12.73;100.00;101652.56;5095414;28;20526;-71
2022/05/29 09:11:47;;;;;;;1.80;0.77;;;;;;;12.69;100.00;101660.41;5090585;28;20055;-70
2022/05/29 09:14:33;;;;;;;5.07;0.70;;;;;;;12.73;100.00;101657.84;5083089;28;20384;-71
2022/05/29 09:17:41;;;;;;;2.10;0.70;;;;;;;12.53;100.00;101653.91;5087771;28;20024;-69
2022/05/29 09:20:24;;;;;;;1.17;0.50;;;;;;;12.62;100.00;101649.69;5077818;28;20036;-70
2022/05/29 09:22:49;;;;;;;1.42;0.40;;;;;;;12.56;100.00;101652.22;5083421;28;20060;-69
2022/05/29 09:25:29;;;;;;;6.18;1.02;;;;;;;12.66;100.00;101645.38;5085802;28;20479;-70
2022/05/29 09:27:59;;;;;;;8.65;1.02;;;;;;;12.86;100.00;101642.25;5096473;28;20054;-71
2022/05/29 09:30:24;;;;;;;2.88;0.85;;;;;;;13.06;100.00;101635.63;5107845;28;20023;-71
2022/05/29 09:32:56;;;;;;;5.03;0.80;;;;;;;13.16;100.00;101632.28;5089872;28;20445;-70
2022/05/29 09:35:28;;;;;;;4.50;0.85;;;;;;;13.23;100.00;101632.41;5088651;28;20480;-70
2022/05/29 09:38:19;;;;;;;6.10;1.10;;;;;;;13.50;100.00;101632.03;5090185;28;20024;-70
2022/05/29 09:40:52;;;;;;;3.92;0.60;;;;;;;13.66;100.00;101641.13;5080948;28;20055;-70
2022/05/29 09:43:23;;;;;;;6.93;0.70;;;;;;;13.61;100.00;101638.38;5089485;28;20032;-70
2022/05/29 09:45:50;;;;;;;4.25;0.77;;;;;;;13.63;100.00;101641.97;5087785;28;20036;-71
2022/05/29 09:51:15;;;;;;;9.25;1.63;;;;;;;12.92;100.00;101658.22;5092225;28;20046;-70
2022/05/29 09:53:47;;;;;;;9.35;1.27;;;;;;;12.48;100.00;101657.34;5092020;28;20089;-70
2022/05/29 09:56:14;;;;;;;7.97;1.00;;;;;;;12.30;100.00;101664.84;5092763;28;20096;-72
2022/05/29 09:58:45;;;;;;;5.20;0.93;;;;;;;12.07;100.00;101666.94;5080184;28;20598;-70
2022/05/29 10:01:11;;;;;;;7.63;1.27;;;;;;;11.77;100.00;101658.31;5086753;28;20020;-71
2022/05/29 10:03:58;;;;;;;6.35;1.33;;;;;;;11.67;100.00;101663.31;5092198;28;20489;-72
2022/05/29 10:06:44;;;;;;;7.60;1.35;;;;;;;11.84;100.00;101663.72;5092928;28;20047;-73
2022/05/29 10:09:17;;;;;;;9.45;1.65;;;;;;;12.07;100.00;101651.13;5091167;28;20049;-71
2022/05/29 10:11:46;;;;;;;16.98;2.17;;;;;;;12.28;100.00;101650.72;5080031;28;20052;-68
2022/05/29 10:14:20;;;;;;;12.20;1.83;;;;;;;12.39;100.00;101650.97;5088675;28;20035;-71
2022/05/29 10:16:47;;;;;;;17.95;2.03;;;;;;;12.45;100.00;101646.72;5088358;28;20032;-70
2022/05/29 10:19:32;;;;;;;10.65;1.63;;;;;;;12.49;100.00;101647.66;5084733;28;20033;-70
2022/05/29 10:21:57;;;;;;;10.25;1.83;;;;;;;12.62;100.00;101648.81;5092708;28;20024;-71
2022/05/29 10:24:28;;;;;;;13.52;2.75;;;;;;;12.67;100.00;101640.97;5094945;28;20028;-70
2022/05/29 10:26:59;;;;;;;7.30;1.60;;;;;;;12.63;100.00;101637.41;5098549;28;20032;-70
2022/05/29 10:29:29;;;;;;;13.18;1.67;;;;;;;12.69;100.00;101650.72;5088491;28;20045;-71
2022/05/29 10:31:56;;;;;;;16.65;1.67;;;;;;;12.75;100.00;101644.66;5090322;28;20036;-71
2022/05/29 10:34:36;;;;;;;13.88;2.05;;;;;;;12.85;100.00;101640.50;5082106;28;20020;-70
2022/05/29 10:37:40;;;;;;;7.10;1.35;;;;;;;13.02;100.00;101638.16;5092040;28;20063;-70
2022/05/29 10:40:27;;;;;;;11.82;1.83;;;;;;;13.10;100.00;101637.47;5085930;28;20035;-70
2022/05/29 10:42:55;;;;;;;13.32;1.90;;;;;;;13.19;100.00;101643.78;5094554;28;20056;-69
2022/05/29 10:45:28;;;;;;;7.18;1.27;;;;;;;13.19;100.00;101635.84;5095726;28;20486;-69
2022/05/29 10:48:27;;;;;;;11.32;1.35;;;;;;;12.86;100.00;101642.25;5093305;28;20487;-67
2022/05/29 10:51:10;;;;;;;5.93;1.60;;;;;;;12.90;100.00;101649.38;5091143;28;20028;-70
2022/05/29 10:53:50;;;;;;;8.50;2.17;;;;;;;12.90;100.00;101642.34;5095601;28;20028;-71
2022/05/29 10:56:33;;;;;;;11.15;1.60;;;;;;;12.81;100.00;101645.69;5091522;28;20069;-71
2022/05/29 10:59:07;;;;;;;6.13;1.13;;;;;;;13.02;100.00;101649.59;5104938;28;20114;-70
2022/05/29 11:04:52;;;;;;;7.80;1.10;;;;;;;13.25;100.00;101630.66;5089886;28;20066;-70
2022/05/29 11:07:31;;;;;;;6.82;1.17;;;;;;;13.44;100.00;101619.59;5091690;28;20491;-70
2022/05/29 11:10:15;;;;;;;9.25;1.42;;;;;;;13.71;100.00;101625.31;5097589;28;20023;-70
2022/05/29 11:12:54;;;;;;;4.53;1.10;;;;;;;13.89;100.00;101624.72;5096972;28;20115;-69
2022/05/29 11:15:33;;;;;;;6.57;1.05;;;;;;;14.05;100.00;101615.25;5088482;28;20062;-70
2022/05/29 11:18:38;;;;;;;5.60;1.30;;;;;;;14.45;100.00;101627.28;5090115;28;20520;-69
2022/05/29 11:21:34;;;;;;;6.60;0.90;;;;;;;14.84;100.00;101619.84;5087504;28;20048;-70
2022/05/29 11:24:31;;;;;;;7.03;1.27;;;;;;;14.77;100.00;101624.19;5092969;28;20483;-70
2022/05/29 11:27:17;;;;;;;6.55;1.10;;;;;;;14.68;100.00;101629.38;5088707;28;20093;-70
2022/05/29 11:29:58;;;;;;;7.03;1.25;;;;;;;14.57;100.00;101620.34;5088023;28;20110;-72
2022/05/29 11:32:41;;;;;;;5.25;0.90;;;;;;;14.57;100.00;101620.34;5095841;28;20035;-70
2022/05/29 11:35:39;;;;;;;9.43;1.70;;;;;;;14.45;100.00;101615.81;5091371;28;20515;-69
2022/05/29 11:38:32;;;;;;;5.03;1.10;;;;;;;14.74;100.00;101617.97;5097800;28;20047;-70
2022/05/29 11:41:04;;;;;;;8.40;1.48;;;;;;;14.84;98.25;101615.44;5090040;28;20024;-71
2022/05/29 11:44:07;;;;;;;6.45;1.25;;;;;;;14.95;93.08;101614.69;5093828;28;20050;-69
2022/05/29 11:52:35;;;;;;;5.45;1.23;;;;;;;14.71;97.38;101608.22;5099475;28;20444;-70
2022/05/29 11:55:23;;;;;;;7.07;1.45;;;;;;;14.29;96.85;101610.28;5090365;28;20020;-68
2022/05/29 11:57:49;;;;;;;6.25;1.30;;;;;;;14.18;97.75;101611.03;5088340;28;20036;-69
2022/05/29 12:00:39;;;;;;;5.68;0.98;;;;;;;14.00;97.03;101613.44;5099650;28;20023;-69
2022/05/29 12:03:24;;;;;;;6.47;1.25;;;;;;;13.83;100.00;101605.22;5089227;28;20028;-69
2022/05/29 12:06:05;;;;;;;6.88;1.13;;;;;;;13.81;100.00;101604.31;5090218;28;20036;-69
2022/05/29 12:08:43;;;;;;;6.70;1.00;;;;;;;13.89;100.00;101608.84;5093507;28;20028;-68
2022/05/29 12:11:16;;;;;;;4.88;1.27;;;;;;;14.06;100.00;101602.03;5088122;28;20028;-70
2022/05/29 12:13:54;;;;;;;4.83;1.33;;;;;;;14.51;100.00;101602.63;5107074;28;20084;-69